Loch Glascanoch, United Kingdom
Current Conditions -  °F | °C
As of 8:50 PM on Sunday 21 Dec 2014 (Local Time) from EGPE Reporting Station
Light Rain Light Rain  
Wind Chill: 41°   Ceiling: Unl
Heat Index: 46°   Visibility: 6mi
Dew Point: 45°   Wind: 13mph
Humidity: 93%   Direction: 240°WSW
Pressure: 29.5"   Gusts: NA
Location:  57.72°N, 4.88°W
Report Text: EGPE 212050Z 24011KT 9999 -RA FEW027 SCT037 08/07 Q0999
Loading
Personal Weather Stations






























Interactive Weather Map New forecast layout! Learn more

10-Day Weather Forecast

Advertisements
Track Severe Weather on mobile